Time;durP1;ratioP1;P1;durP2;ratioP2;P2;SDS_P1;SDS_P2;PMS_P1;PMS_P2;Temp;Humidity;BMP_temperature;BMP_pressure;BME280_temperature;BME280_humidity;BME280_pressure;Samples;Min_cycle;Max_cycle;Signal;HPM_P1;HPM_P2
2022/03/25 00:02:08;;;;;;;34.97;16.65;;;7.50;99.90;;;;;;5053831;28;20096;-60
2022/03/25 00:04:33;;;;;;;39.35;17.35;;;7.40;99.90;;;;;;5053818;28;20043;-59
2022/03/25 00:06:59;;;;;;;38.42;16.50;;;7.30;99.90;;;;;;5055127;28;20017;-59
2022/03/25 00:09:25;;;;;;;41.58;17.38;;;7.20;99.90;;;;;;5055518;28;20071;-58
2022/03/25 00:11:50;;;;;;;41.60;17.45;;;7.10;99.90;;;;;;5054511;28;20067;-60
2022/03/25 00:14:16;;;;;;;36.58;17.17;;;7.10;99.90;;;;;;5055148;28;20086;-60
2022/03/25 00:16:42;;;;;;;38.22;16.52;;;7.10;99.90;;;;;;5053829;28;20025;-60
2022/03/25 00:19:08;;;;;;;42.33;17.23;;;6.90;99.90;;;;;;5053519;28;20031;-59
2022/03/25 00:21:34;;;;;;;40.78;16.90;;;6.90;99.90;;;;;;5055014;28;20100;-57
2022/03/25 00:24:00;;;;;;;39.58;17.73;;;6.90;99.90;;;;;;5053518;28;20141;-60
2022/03/25 00:26:26;;;;;;;38.05;15.98;;;7.00;99.90;;;;;;5054687;28;20044;-57
2022/03/25 00:28:52;;;;;;;37.53;16.05;;;7.00;99.90;;;;;;5053383;28;20032;-59
2022/03/25 00:31:17;;;;;;;41.90;16.48;;;7.00;99.90;;;;;;5054563;28;20063;-59
2022/03/25 00:33:44;;;;;;;40.88;17.63;;;7.00;99.90;;;;;;5054570;28;20068;-60
2022/03/25 00:36:10;;;;;;;45.70;16.08;;;6.90;99.90;;;;;;5053152;28;20088;-56
2022/03/25 00:38:37;;;;;;;39.40;16.98;;;7.00;99.90;;;;;;5053113;28;20174;-58
2022/03/25 00:41:06;;;;;;;38.38;17.20;;;7.00;99.90;;;;;;5053138;28;20040;-58
2022/03/25 00:43:34;;;;;;;32.72;16.05;;;7.00;99.90;;;;;;5054710;28;20017;-57
2022/03/25 00:46:00;;;;;;;43.25;16.40;;;7.00;99.90;;;;;;5053244;28;20181;-59
2022/03/25 00:48:27;;;;;;;39.80;17.58;;;7.00;99.90;;;;;;5052932;28;20017;-60
2022/03/25 00:50:53;;;;;;;38.28;15.75;;;6.90;99.90;;;;;;5052860;28;20032;-59
2022/03/25 00:53:19;;;;;;;40.22;16.58;;;6.80;99.90;;;;;;5053161;28;20112;-59
2022/03/25 00:55:44;;;;;;;36.15;16.25;;;6.90;99.90;;;;;;5052785;28;20025;-58
2022/03/25 00:58:10;;;;;;;48.40;17.23;;;7.10;99.90;;;;;;5053992;28;20025;-57
2022/03/25 01:00:37;;;;;;;40.47;16.48;;;6.90;99.90;;;;;;5053784;28;20032;-58
2022/03/25 01:03:03;;;;;;;40.80;17.88;;;7.00;99.90;;;;;;5053945;28;20024;-59
2022/03/25 01:05:29;;;;;;;39.15;17.27;;;7.00;99.90;;;;;;5054078;28;20021;-59
2022/03/25 01:07:55;;;;;;;44.30;17.15;;;6.90;99.90;;;;;;5054167;28;20025;-59
2022/03/25 01:10:21;;;;;;;40.75;17.63;;;6.80;99.90;;;;;;5052066;28;20131;-57
2022/03/25 01:12:46;;;;;;;40.90;17.80;;;6.70;99.90;;;;;;5054097;28;20063;-60
2022/03/25 01:15:12;;;;;;;36.03;15.55;;;6.60;99.90;;;;;;5053852;28;20029;-59
2022/03/25 01:17:38;;;;;;;40.42;17.35;;;6.70;99.90;;;;;;5052766;28;20033;-59
2022/03/25 01:20:04;;;;;;;41.95;17.63;;;6.70;99.90;;;;;;5053650;28;20057;-58
2022/03/25 01:22:29;;;;;;;38.08;16.25;;;6.70;99.90;;;;;;5053928;28;20104;-59
2022/03/25 01:24:55;;;;;;;40.15;16.65;;;6.60;99.90;;;;;;5052320;28;20052;-57
2022/03/25 01:27:22;;;;;;;36.20;15.63;;;6.60;99.90;;;;;;5053548;28;20044;-60
2022/03/25 01:29:47;;;;;;;33.40;17.05;;;6.80;99.90;;;;;;5052616;28;20029;-59
2022/03/25 01:32:13;;;;;;;43.20;18.33;;;6.80;99.90;;;;;;5053775;28;20142;-58
2022/03/25 01:34:38;;;;;;;36.55;15.95;;;6.70;99.90;;;;;;5052190;28;20060;-59
2022/03/25 01:37:06;;;;;;;36.75;15.85;;;6.60;99.90;;;;;;5052056;28;20044;-58
2022/03/25 01:39:31;;;;;;;38.90;17.55;;;6.50;99.90;;;;;;5052055;28;20088;-59
2022/03/25 01:41:57;;;;;;;43.17;17.27;;;6.50;99.90;;;;;;5052407;28;20120;-57
2022/03/25 01:44:28;;;;;;;36.58;16.52;;;6.50;99.90;;;;;;5053563;28;20027;-59
2022/03/25 01:46:54;;;;;;;40.17;16.40;;;6.20;99.90;;;;;;5053272;28;20017;-59
2022/03/25 01:49:20;;;;;;;40.20;17.98;;;6.20;99.90;;;;;;5052738;28;20091;-57
2022/03/25 01:51:53;;;;;;;45.33;17.70;;;6.10;99.90;;;;;;5053176;28;20017;-58
2022/03/25 01:54:30;;;;;;;39.78;16.15;;;6.10;99.90;;;;;;5053502;28;20025;-59
2022/03/25 01:57:02;;;;;;;38.38;16.25;;;6.00;99.90;;;;;;5053022;28;20025;-57
2022/03/25 01:59:29;;;;;;;41.90;17.30;;;5.90;99.90;;;;;;5051703;28;20116;-58
2022/03/25 02:01:55;;;;;;;41.40;16.95;;;5.90;99.90;;;;;;5054007;28;20066;-58
2022/03/25 02:04:22;;;;;;;43.53;17.85;;;5.70;99.90;;;;;;5053125;28;20029;-60
2022/03/25 02:06:48;;;;;;;39.30;16.67;;;5.70;99.90;;;;;;5053655;28;20027;-58
2022/03/25 02:09:13;;;;;;;40.05;16.10;;;5.80;99.90;;;;;;5052644;28;20017;-59
2022/03/25 02:11:40;;;;;;;39.20;17.90;;;5.80;99.90;;;;;;5053189;28;20032;-59
2022/03/25 02:14:08;;;;;;;44.28;19.15;;;5.70;99.90;;;;;;5053090;28;20103;-60
2022/03/25 02:16:42;;;;;;;43.10;18.52;;;5.70;99.90;;;;;;5052993;28;20032;-58
2022/03/25 02:19:11;;;;;;;40.53;17.88;;;5.60;99.90;;;;;;5052557;28;20025;-60
2022/03/25 02:21:38;;;;;;;38.78;17.38;;;5.60;99.90;;;;;;5052984;28;20111;-60
2022/03/25 02:24:06;;;;;;;37.28;16.35;;;5.60;99.90;;;;;;5056990;28;20017;-59
2022/03/25 02:26:33;;;;;;;45.00;18.27;;;5.50;99.90;;;;;;5056799;28;20017;-58
2022/03/25 02:29:00;;;;;;;49.40;18.55;;;5.50;99.90;;;;;;5055675;28;20119;-57
2022/03/25 02:31:27;;;;;;;42.90;17.02;;;5.30;99.90;;;;;;5055897;28;20036;-60
2022/03/25 02:33:56;;;;;;;43.10;17.30;;;5.20;99.90;;;;;;5055604;28;20091;-58
2022/03/25 02:36:22;;;;;;;39.00;17.00;;;5.20;99.90;;;;;;5056007;28;20025;-56
2022/03/25 02:38:47;;;;;;;42.08;17.40;;;5.20;99.90;;;;;;5055808;28;20028;-54
2022/03/25 02:41:13;;;;;;;44.58;17.63;;;5.20;99.90;;;;;;5055322;28;20123;-58
2022/03/25 02:43:39;;;;;;;40.92;17.30;;;5.20;99.90;;;;;;5056899;28;20021;-58
2022/03/25 02:46:05;;;;;;;45.75;18.80;;;5.30;99.90;;;;;;5056533;28;20067;-59
2022/03/25 02:48:31;;;;;;;36.70;16.80;;;5.40;99.90;;;;;;5056809;28;20024;-55
2022/03/25 02:50:56;;;;;;;44.60;17.10;;;5.30;99.90;;;;;;5056507;28;20163;-60
2022/03/25 02:53:22;;;;;;;47.60;18.42;;;5.30;99.90;;;;;;5056359;28;20025;-60
2022/03/25 02:55:48;;;;;;;39.17;16.77;;;5.30;99.90;;;;;;5055374;28;20025;-58
2022/03/25 02:58:14;;;;;;;45.42;17.08;;;5.40;99.90;;;;;;5055115;28;20039;-58
2022/03/25 03:00:39;;;;;;;47.53;17.88;;;5.30;99.90;;;;;;5054826;28;20125;-55
2022/03/25 03:03:05;;;;;;;41.75;17.02;;;5.20;99.90;;;;;;5054943;28;20024;-54
2022/03/25 03:05:31;;;;;;;37.20;17.13;;;5.20;99.90;;;;;;5056187;28;20039;-54
2022/03/25 03:07:58;;;;;;;42.67;16.85;;;5.10;99.90;;;;;;5056105;28;20021;-60
2022/03/25 03:10:24;;;;;;;37.17;15.98;;;5.10;99.90;;;;;;5056128;28;20029;-60
2022/03/25 03:12:52;;;;;;;36.25;15.95;;;5.30;99.90;;;;;;5055116;28;20036;-60
2022/03/25 03:15:18;;;;;;;46.25;18.15;;;5.40;99.90;;;;;;5055673;28;20029;-57
2022/03/25 03:17:45;;;;;;;36.95;15.75;;;5.40;99.90;;;;;;5054229;28;20479;-59
2022/03/25 03:20:11;;;;;;;45.35;17.55;;;5.40;99.90;;;;;;5054269;28;20075;-60
2022/03/25 03:22:37;;;;;;;41.22;17.00;;;5.40;99.90;;;;;;5054383;28;20017;-59
2022/03/25 03:25:03;;;;;;;35.58;15.45;;;5.50;99.90;;;;;;5055534;28;20013;-59
2022/03/25 03:27:29;;;;;;;37.78;16.50;;;5.30;99.90;;;;;;5054068;28;20037;-60
2022/03/25 03:29:55;;;;;;;38.20;16.13;;;5.30;99.90;;;;;;5054304;28;20028;-59
2022/03/25 03:32:22;;;;;;;40.85;17.05;;;5.40;99.90;;;;;;5054030;28;20029;-59
2022/03/25 03:34:48;;;;;;;37.75;16.70;;;5.40;99.90;;;;;;5055710;28;20075;-59
2022/03/25 03:37:14;;;;;;;38.55;16.15;;;5.40;99.90;;;;;;5055589;28;20029;-59
2022/03/25 03:39:39;;;;;;;35.10;15.82;;;5.40;99.90;;;;;;5054283;28;20068;-59
2022/03/25 03:42:05;;;;;;;41.40;16.55;;;5.30;99.90;;;;;;5055454;28;20024;-59
2022/03/25 03:44:31;;;;;;;43.30;18.55;;;5.40;99.90;;;;;;5055596;28;20052;-57
2022/03/25 03:46:57;;;;;;;38.72;16.13;;;5.40;99.90;;;;;;5054086;28;20494;-59
2022/03/25 03:49:22;;;;;;;39.28;15.52;;;5.30;99.90;;;;;;5055749;28;20025;-58
2022/03/25 03:51:48;;;;;;;41.30;17.00;;;5.30;99.90;;;;;;5055871;28;20056;-60
2022/03/25 03:54:14;;;;;;;43.20;17.17;;;5.10;99.90;;;;;;5054088;28;20017;-60
2022/03/25 03:56:39;;;;;;;41.97;17.52;;;5.10;99.90;;;;;;5055259;28;20021;-60
2022/03/25 03:59:05;;;;;;;39.75;17.08;;;4.90;99.90;;;;;;5054669;28;20025;-60
2022/03/25 04:01:30;;;;;;;43.25;16.77;;;4.90;99.90;;;;;;5055732;28;20029;-58
2022/03/25 04:03:56;;;;;;;38.22;16.70;;;4.70;99.90;;;;;;5055178;28;20025;-57
2022/03/25 04:06:22;;;;;;;39.08;17.08;;;4.80;99.90;;;;;;5055514;28;20043;-59
2022/03/25 04:08:48;;;;;;;40.88;17.25;;;4.70;99.90;;;;;;5054965;28;20017;-58
2022/03/25 04:11:15;;;;;;;46.08;18.40;;;4.70;99.90;;;;;;5054984;28;20029;-62
2022/03/25 04:13:40;;;;;;;47.33;20.15;;;4.60;99.90;;;;;;5053697;28;20035;-58
2022/03/25 04:16:06;;;;;;;43.88;17.70;;;4.50;99.90;;;;;;5055012;28;20103;-59
2022/03/25 04:18:32;;;;;;;40.67;16.52;;;4.40;99.90;;;;;;5054828;28;20021;-59
2022/03/25 04:20:58;;;;;;;42.17;16.17;;;4.40;99.90;;;;;;5054954;28;20092;-59
2022/03/25 04:23:23;;;;;;;38.35;16.92;;;4.40;99.90;;;;;;5054781;28;20101;-60
2022/03/25 04:25:49;;;;;;;42.08;15.63;;;4.40;99.90;;;;;;5055226;28;20111;-59
2022/03/25 04:28:15;;;;;;;39.13;16.38;;;4.40;99.90;;;;;;5053320;28;20017;-59
2022/03/25 04:30:40;;;;;;;41.65;17.33;;;4.30;99.90;;;;;;5053330;28;20036;-60
2022/03/25 04:33:06;;;;;;;41.03;16.83;;;4.40;99.90;;;;;;5055139;28;20047;-59
2022/03/25 04:35:32;;;;;;;36.63;15.95;;;4.40;99.90;;;;;;5053170;28;20028;-60
2022/03/25 04:37:59;;;;;;;42.67;17.42;;;4.40;99.90;;;;;;5053252;28;20094;-59
2022/03/25 04:40:28;;;;;;;39.55;16.60;;;4.30;99.90;;;;;;5054163;28;20029;-58
2022/03/25 04:42:55;;;;;;;45.38;17.02;;;4.20;99.90;;;;;;5053131;28;20051;-59
2022/03/25 04:45:22;;;;;;;39.35;17.08;;;4.20;99.90;;;;;;5053861;28;20040;-59
2022/03/25 04:47:47;;;;;;;42.75;17.70;;;4.20;99.90;;;;;;5054144;28;20056;-58
2022/03/25 04:50:13;;;;;;;40.28;16.90;;;4.30;99.90;;;;;;5054458;28;20021;-59
2022/03/25 04:52:39;;;;;;;42.47;18.50;;;4.30;99.90;;;;;;5053225;28;20063;-56
2022/03/25 04:55:05;;;;;;;40.65;17.33;;;4.30;99.90;;;;;;5054149;28;20025;-59
2022/03/25 04:57:31;;;;;;;44.97;17.88;;;4.20;99.90;;;;;;5052862;28;20061;-57
2022/03/25 04:59:56;;;;;;;41.92;17.05;;;4.10;99.90;;;;;;5054347;28;20533;-60
2022/03/25 05:02:23;;;;;;;37.63;16.95;;;4.10;99.90;;;;;;5052764;28;20121;-60
2022/03/25 05:04:48;;;;;;;43.40;16.63;;;4.20;99.90;;;;;;5054027;28;20021;-61
2022/03/25 05:07:15;;;;;;;43.35;16.85;;;4.10;99.90;;;;;;5052593;28;20033;-59
2022/03/25 05:09:41;;;;;;;41.53;16.83;;;4.10;99.90;;;;;;5054165;28;20029;-59
2022/03/25 05:12:06;;;;;;;41.70;16.48;;;4.20;99.90;;;;;;5054171;28;20043;-59
2022/03/25 05:14:34;;;;;;;41.90;16.38;;;4.20;99.90;;;;;;5053779;28;20379;-60
2022/03/25 05:16:59;;;;;;;37.67;14.75;;;4.20;99.90;;;;;;5052124;28;20021;-56
2022/03/25 05:19:25;;;;;;;40.92;16.60;;;4.40;99.90;;;;;;5053291;28;20021;-58
2022/03/25 05:21:51;;;;;;;44.78;16.27;;;4.40;99.90;;;;;;5053983;28;20025;-59
2022/03/25 05:24:17;;;;;;;47.38;16.58;;;4.40;99.90;;;;;;5053563;28;20478;-60
2022/03/25 05:26:43;;;;;;;38.92;15.98;;;4.30;99.90;;;;;;5052267;28;20383;-61
2022/03/25 05:29:09;;;;;;;42.22;17.92;;;4.40;99.90;;;;;;5053524;28;20024;-60
2022/03/25 05:31:36;;;;;;;37.33;14.88;;;4.20;99.90;;;;;;5052180;28;20111;-60
2022/03/25 05:34:04;;;;;;;36.83;16.30;;;4.30;99.90;;;;;;5053284;28;20070;-62
2022/03/25 05:36:31;;;;;;;46.05;17.30;;;4.40;99.90;;;;;;5053199;28;20024;-61
2022/03/25 05:38:58;;;;;;;36.67;14.95;;;4.40;99.90;;;;;;5052173;28;20024;-60
2022/03/25 05:41:24;;;;;;;42.88;16.17;;;4.60;99.90;;;;;;5053292;28;20028;-61
2022/03/25 05:43:51;;;;;;;41.55;17.13;;;4.70;99.90;;;;;;5052397;28;20495;-61
2022/03/25 05:46:17;;;;;;;44.80;18.52;;;4.50;99.90;;;;;;5053273;28;20028;-59
2022/03/25 05:48:43;;;;;;;38.58;15.82;;;4.70;99.90;;;;;;5052864;28;20070;-60
2022/03/25 05:51:10;;;;;;;47.42;18.73;;;5.20;99.90;;;;;;5053311;28;20025;-60
2022/03/25 05:53:36;;;;;;;55.10;18.15;;;5.40;99.90;;;;;;5052057;28;20032;-60
2022/03/25 05:56:02;;;;;;;43.10;18.60;;;5.60;99.90;;;;;;5053000;28;20047;-58
2022/03/25 05:58:27;;;;;;;42.55;18.25;;;5.50;99.90;;;;;;5052733;28;20021;-60
2022/03/25 06:00:53;;;;;;;42.22;17.25;;;5.50;99.90;;;;;;5052141;28;20040;-59
2022/03/25 06:03:18;;;;;;;47.05;17.67;;;5.50;99.90;;;;;;5053145;28;20032;-60
2022/03/25 06:05:44;;;;;;;45.85;18.65;;;5.80;99.90;;;;;;5051776;28;20017;-60
2022/03/25 06:08:10;;;;;;;38.40;16.73;;;5.90;99.90;;;;;;5051845;28;20018;-60
2022/03/25 06:10:35;;;;;;;41.08;18.35;;;5.90;99.90;;;;;;5052931;28;20021;-59
2022/03/25 06:13:01;;;;;;;44.00;18.02;;;6.20;99.90;;;;;;5051801;28;20037;-60
2022/03/25 06:15:28;;;;;;;46.03;18.13;;;6.60;99.90;;;;;;5053259;28;20483;-59
2022/03/25 06:17:54;;;;;;;43.10;18.25;;;7.10;99.90;;;;;;5051802;28;20036;-61
2022/03/25 06:20:23;;;;;;;39.58;16.40;;;7.60;99.90;;;;;;5052841;28;20021;-60
2022/03/25 06:22:49;;;;;;;44.50;18.02;;;8.10;99.90;;;;;;5051792;28;20074;-58
2022/03/25 06:25:15;;;;;;;44.92;17.48;;;8.70;99.90;;;;;;5051720;28;20017;-57
2022/03/25 06:27:47;;;;;;;38.97;17.60;;;9.20;99.90;;;;;;5051959;28;20028;-58
2022/03/25 06:30:13;;;;;;;;;;;9.40;99.90;;;;;;5052210;28;20021;-59
2022/03/25 06:32:40;;;;;;;41.28;18.20;;;9.70;99.90;;;;;;5051709;28;19904;-58
2022/03/25 06:35:07;;;;;;;40.03;17.63;;;10.20;99.90;;;;;;5051940;28;20048;-57
2022/03/25 06:37:33;;;;;;;35.90;17.30;;;10.90;99.90;;;;;;5051843;28;20025;-58
2022/03/25 06:39:59;;;;;;;38.70;17.95;;;11.50;99.90;;;;;;5052861;28;20025;-59
2022/03/25 06:42:25;;;;;;;40.75;19.63;;;11.90;99.90;;;;;;5053137;28;20380;-59
2022/03/25 06:44:50;;;;;;;45.55;22.17;;;12.20;99.90;;;;;;5053094;28;20052;-58
2022/03/25 06:47:16;;;;;;;52.58;19.98;;;12.60;99.90;;;;;;5052997;28;20029;-58
2022/03/25 06:49:42;;;;;;;59.08;23.17;;;12.90;99.90;;;;;;5051525;28;20029;-58
2022/03/25 06:52:08;;;;;;;52.00;23.33;;;13.40;99.90;;;;;;5051502;28;20028;-58
2022/03/25 06:54:34;;;;;;;48.35;23.13;;;14.10;99.90;;;;;;5051617;28;20026;-59
2022/03/25 06:57:01;;;;;;;53.40;24.52;;;14.60;99.90;;;;;;5052700;28;20025;-57
2022/03/25 06:59:27;;;;;;;54.92;25.77;;;14.90;98.40;;;;;;5051474;28;20114;-59
2022/03/25 07:01:53;;;;;;;55.60;25.95;;;15.00;97.30;;;;;;5053201;28;20033;-57
2022/03/25 07:04:19;;;;;;;57.20;25.92;;;15.50;96.90;;;;;;5051407;28;20028;-58
2022/03/25 07:06:48;;;;;;;55.28;24.55;;;15.70;95.60;;;;;;5051663;28;20017;-58
2022/03/25 07:09:14;;;;;;;48.55;23.92;;;15.20;95.70;;;;;;5055893;28;20033;-57
2022/03/25 07:11:40;;;;;;;45.80;24.10;;;16.00;95.20;;;;;;5055333;28;20096;-59
2022/03/25 07:14:06;;;;;;;40.95;22.13;;;16.20;94.30;;;;;;5055273;28;20048;-58
2022/03/25 07:16:32;;;;;;;54.72;25.77;;;16.70;93.30;;;;;;5054785;28;20025;-59
2022/03/25 07:18:59;;;;;;;39.65;22.48;;;17.20;92.20;;;;;;5056850;28;20098;-59
2022/03/25 07:21:25;;;;;;;38.63;21.95;;;17.80;91.40;;;;;;5054750;28;20021;-59
2022/03/25 07:23:51;;;;;;;33.63;19.10;;;18.10;88.00;;;;;;5054799;28;20074;-60
2022/03/25 07:26:17;;;;;;;33.67;17.38;;;18.60;88.00;;;;;;5055800;28;20017;-60
2022/03/25 07:28:43;;;;;;;33.97;17.30;;;19.40;85.40;;;;;;5055782;28;20051;-60
2022/03/25 07:31:09;;;;;;;33.97;19.40;;;20.00;80.00;;;;;;5054898;28;20025;-60
2022/03/25 07:33:35;;;;;;;30.75;17.73;;;20.50;76.60;;;;;;5054466;28;20058;-60
2022/03/25 07:36:01;;;;;;;34.53;18.23;;;21.00;77.00;;;;;;5054380;28;20054;-59
2022/03/25 07:38:28;;;;;;;37.05;18.10;;;21.90;74.50;;;;;;5055670;28;20031;-61
2022/03/25 07:40:55;;;;;;;35.72;20.40;;;22.20;71.90;;;;;;5055518;28;20028;-61
2022/03/25 07:43:20;;;;;;;34.97;19.33;;;22.10;69.60;;;;;;5055907;28;20480;-61
2022/03/25 07:45:46;;;;;;;37.20;20.63;;;22.30;70.80;;;;;;5055477;28;20028;-61
2022/03/25 07:48:11;;;;;;;39.38;20.30;;;22.40;66.90;;;;;;5055489;28;20021;-60
2022/03/25 07:50:37;;;;;;;33.63;20.35;;;23.00;66.60;;;;;;5054218;28;20025;-60
2022/03/25 07:53:03;;;;;;;36.53;20.67;;;23.10;64.10;;;;;;5055566;28;20080;-60
2022/03/25 07:55:29;;;;;;;43.00;20.15;;;23.30;65.50;;;;;;5054046;28;20491;-61
2022/03/25 07:57:56;;;;;;;40.00;20.67;;;23.00;65.20;;;;;;5055372;28;20025;-60
2022/03/25 08:00:22;;;;;;;38.25;21.67;;;23.70;63.20;;;;;;5055401;28;20032;-61
2022/03/25 08:02:52;;;;;;;34.08;20.17;;;24.20;62.50;;;;;;5053988;28;20022;-61
2022/03/25 08:05:18;;;;;;;40.33;22.67;;;24.30;60.40;;;;;;5055562;28;20021;-61
2022/03/25 08:07:48;;;;;;;41.78;22.55;;;24.30;57.50;;;;;;5053814;28;20028;-61
2022/03/25 08:10:16;;;;;;;41.08;23.83;;;24.10;58.50;;;;;;5055503;28;20029;-60
2022/03/25 08:12:42;;;;;;;38.60;23.65;;;23.90;55.90;;;;;;5054328;28;20380;-62
2022/03/25 08:15:08;;;;;;;44.05;23.50;;;23.80;57.30;;;;;;5054161;28;20021;-60
2022/03/25 08:17:57;;;;;;;40.90;21.95;;;23.30;56.10;;;;;;5054925;28;20037;-61
2022/03/25 08:20:26;;;;;;;43.25;23.77;;;23.50;58.30;;;;;;5053869;28;20112;-60
2022/03/25 08:22:52;;;;;;;39.10;22.60;;;23.60;58.30;;;;;;5053569;28;20021;-62
2022/03/25 08:28:02;;;;;;;37.17;21.70;;;25.50;56.10;;;;;;5054890;28;20032;-62
2022/03/25 08:30:30;;;;;;;39.10;22.67;;;26.10;54.50;;;;;;5055010;28;20025;-61
2022/03/25 08:32:57;;;;;;;37.17;20.77;;;26.20;54.30;;;;;;5054676;28;20032;-61
2022/03/25 08:35:22;;;;;;;35.13;21.73;;;25.40;55.20;;;;;;5053419;28;20029;-61
2022/03/25 08:37:49;;;;;;;36.10;22.02;;;25.70;54.30;;;;;;5054576;28;20533;-61
2022/03/25 08:40:15;;;;;;;37.70;23.30;;;25.50;53.60;;;;;;5053526;28;20029;-61
2022/03/25 08:42:40;;;;;;;35.28;21.42;;;26.10;53.20;;;;;;5054558;28;20101;-61
2022/03/25 08:45:06;;;;;;;41.45;24.20;;;26.90;54.80;;;;;;5053235;28;20075;-63
2022/03/25 08:47:32;;;;;;;45.88;27.38;;;27.30;51.30;;;;;;5054900;28;20036;-63
2022/03/25 08:49:58;;;;;;;41.10;20.13;;;27.40;52.80;;;;;;5053987;28;20467;-64
2022/03/25 08:52:24;;;;;;;33.35;18.27;;;27.80;51.10;;;;;;5053141;28;20483;-63
2022/03/25 08:54:50;;;;;;;39.20;23.67;;;28.20;51.80;;;;;;5054325;28;20036;-63
2022/03/25 08:57:15;;;;;;;32.45;21.70;;;29.10;50.30;;;;;;5053596;28;20028;-62
2022/03/25 08:59:41;;;;;;;36.92;24.23;;;29.30;49.10;;;;;;5052807;28;20119;-64
2022/03/25 09:02:08;;;;;;;36.47;24.95;;;29.80;47.80;;;;;;5052969;28;20025;-65
2022/03/25 09:04:34;;;;;;;39.75;25.45;;;29.20;47.10;;;;;;5054496;28;20021;-66
2022/03/25 09:13:43;;;;;;;37.22;23.73;;;28.70;49.30;;;;;;5054227;28;20024;-63
2022/03/25 09:16:11;;;;;;;39.80;24.05;;;29.20;49.80;;;;;;5054151;28;20013;-64
2022/03/25 09:18:37;;;;;;;41.05;23.55;;;29.40;49.60;;;;;;5053460;28;20021;-64
2022/03/25 09:21:02;;;;;;;29.13;18.30;;;30.50;48.30;;;;;;5053877;28;20036;-64
2022/03/25 09:23:28;;;;;;;33.95;21.23;;;31.00;49.10;;;;;;5052867;28;20411;-63
2022/03/25 09:25:54;;;;;;;33.53;20.30;;;31.20;47.40;;;;;;5052496;28;20021;-63
2022/03/25 09:28:20;;;;;;;46.38;25.02;;;30.30;47.80;;;;;;5052924;28;20021;-62
2022/03/25 09:30:45;;;;;;;38.50;23.73;;;30.60;45.60;;;;;;5053285;28;20089;-63
2022/03/25 09:33:11;;;;;;;46.13;26.45;;;30.50;47.70;;;;;;5052482;28;20033;-62
2022/03/25 09:35:38;;;;;;;36.38;24.73;;;29.90;45.50;;;;;;5052596;28;20029;-62
2022/03/25 09:38:04;;;;;;;41.63;25.48;;;29.50;47.30;;;;;;5053947;28;20092;-62
2022/03/25 09:40:30;;;;;;;36.80;24.45;;;30.20;47.70;;;;;;5052242;28;20031;-62
2022/03/25 09:42:57;;;;;;;45.30;25.38;;;30.70;46.30;;;;;;5053525;28;20539;-62
2022/03/25 09:45:25;;;;;;;49.00;28.02;;;31.00;45.00;;;;;;5052203;28;20053;-61
2022/03/25 09:47:51;;;;;;;37.42;25.52;;;30.10;44.30;;;;;;5053191;28;20013;-62
2022/03/25 09:50:21;;;;;;;39.40;25.08;;;29.70;46.60;;;;;;5052149;28;20036;-60
2022/03/25 09:52:47;;;;;;;40.17;25.55;;;30.60;45.80;;;;;;5053219;28;20044;-63
2022/03/25 09:55:16;;;;;;;43.15;27.00;;;31.40;46.60;;;;;;5053302;28;20033;-62
2022/03/25 09:57:42;;;;;;;45.92;27.63;;;30.60;43.60;;;;;;5053308;28;20044;-61
2022/03/25 10:00:12;;;;;;;40.65;26.75;;;29.20;46.00;;;;;;5052071;28;20167;-60
2022/03/25 10:02:37;;;;;;;39.85;24.55;;;29.20;45.20;;;;;;5052084;28;20025;-61
2022/03/25 10:05:23;;;;;;;41.75;25.80;;;28.90;46.80;;;;;;5051976;28;20029;-61
2022/03/25 10:07:57;;;;;;;39.38;25.48;;;29.10;46.30;;;;;;5051973;28;20031;-63
2022/03/25 10:10:25;;;;;;;42.17;26.27;;;28.40;46.40;;;;;;5053417;28;20021;-61
2022/03/25 10:13:02;;;;;;;46.45;26.50;;;27.80;46.70;;;;;;5053250;28;20052;-63
2022/03/25 10:15:30;;;;;;;47.30;28.13;;;28.20;46.60;;;;;;5053144;28;20099;-59
2022/03/25 10:18:07;;;;;;;50.75;29.75;;;27.40;45.20;;;;;;5052113;28;20079;-60
2022/03/25 10:20:35;;;;;;;42.92;27.38;;;26.70;46.50;;;;;;5051844;28;20494;-61
2022/03/25 10:23:04;;;;;;;43.28;26.42;;;24.70;47.60;;;;;;5053195;28;20043;-61
2022/03/25 10:25:35;;;;;;;49.47;27.65;;;24.00;49.90;;;;;;5053055;28;20024;-60
2022/03/25 10:28:02;;;;;;;45.45;25.33;;;23.50;50.40;;;;;;5053284;28;20025;-60
2022/03/25 10:30:38;;;;;;;46.25;26.70;;;22.90;51.80;;;;;;5052070;28;20092;-56
2022/03/25 10:33:13;;;;;;;51.20;26.27;;;22.70;52.30;;;;;;5053029;28;20028;-60
2022/03/25 10:36:07;;;;;;;49.55;26.20;;;21.80;51.80;;;;;;5052973;28;20025;-59
2022/03/25 10:39:01;;;;;;;43.92;24.55;;;21.50;53.10;;;;;;5052976;28;20027;-60
2022/03/25 10:41:41;;;;;;;49.90;25.80;;;21.20;53.40;;;;;;5052627;28;20092;-59
2022/03/25 10:44:08;;;;;;;45.33;24.02;;;21.00;54.30;;;;;;5056661;28;20052;-59
2022/03/25 10:46:40;;;;;;;48.63;26.52;;;21.00;53.10;;;;;;5056699;28;20025;-60
2022/03/25 10:49:08;;;;;;;49.60;26.73;;;20.70;53.20;;;;;;5055386;28;20017;-60
2022/03/25 10:51:35;;;;;;;51.33;26.27;;;20.00;52.40;;;;;;5057203;28;20021;-60
2022/03/25 10:54:09;;;;;;;47.50;24.17;;;19.40;54.20;;;;;;5056589;28;20025;-60
2022/03/25 10:56:46;;;;;;;52.47;24.45;;;19.30;55.30;;;;;;5056569;28;20051;-60
2022/03/25 10:59:23;;;;;;;51.95;26.23;;;19.30;55.00;;;;;;5055193;28;20061;-60
2022/03/25 11:01:52;;;;;;;48.83;25.65;;;19.30;54.30;;;;;;5055219;28;20025;-60
2022/03/25 11:04:19;;;;;;;50.50;23.95;;;19.20;54.70;;;;;;5056800;28;20045;-61
2022/03/25 11:06:46;;;;;;;47.83;23.80;;;19.20;55.80;;;;;;5055043;28;20024;-60
2022/03/25 11:09:13;;;;;;;51.38;25.30;;;19.60;55.00;;;;;;5055240;28;20021;-59
2022/03/25 11:11:44;;;;;;;45.38;24.02;;;19.60;54.50;;;;;;5055034;28;20033;-61
2022/03/25 11:14:10;;;;;;;50.07;24.43;;;19.10;55.00;;;;;;5054959;28;20029;-59
2022/03/25 11:16:40;;;;;;;44.13;22.83;;;19.00;56.30;;;;;;5056292;28;20028;-61
2022/03/25 11:19:09;;;;;;;50.13;24.65;;;19.20;56.30;;;;;;5055158;28;20021;-61
2022/03/25 11:21:41;;;;;;;48.00;23.42;;;19.20;55.00;;;;;;5056055;28;20020;-60
2022/03/25 11:24:13;;;;;;;;;;;18.90;55.80;;;;;;5056674;28;20032;-61
2022/03/25 11:26:50;;;;;;;50.55;24.80;;;18.50;55.70;;;;;;5055863;28;19911;-60
2022/03/25 11:29:20;;;;;;;55.28;25.02;;;18.50;55.30;;;;;;5056095;28;20079;-60
2022/03/25 11:32:11;;;;;;;48.85;23.67;;;18.40;56.50;;;;;;5055714;28;20025;-61
2022/03/25 11:34:55;;;;;;;53.13;24.38;;;18.40;56.50;;;;;;5054985;28;20035;-60
2022/03/25 11:37:28;;;;;;;48.20;24.45;;;18.20;56.80;;;;;;5054654;28;20040;-57
2022/03/25 11:40:12;;;;;;;47.10;23.80;;;18.10;57.40;;;;;;5054299;28;20094;-59
2022/03/25 11:42:43;;;;;;;54.92;24.40;;;18.20;57.80;;;;;;5055617;28;20066;-60
2022/03/25 11:45:21;;;;;;;47.95;24.55;;;18.40;57.90;;;;;;5054382;28;20021;-58
2022/03/25 11:47:59;;;;;;;50.67;23.65;;;18.50;57.60;;;;;;5054436;28;20108;-58
2022/03/25 11:50:36;;;;;;;56.28;24.52;;;18.30;56.80;;;;;;5054222;28;20021;-59
2022/03/25 11:53:11;;;;;;;46.20;21.95;;;18.10;56.70;;;;;;5053893;28;20025;-59
2022/03/25 11:56:06;;;;;;;49.75;24.63;;;18.10;57.60;;;;;;5055391;28;20040;-62
2022/03/25 11:58:36;;;;;;;49.67;24.30;;;18.30;56.80;;;;;;5054079;28;20013;-61
2022/03/25 12:01:12;;;;;;;50.00;23.97;;;18.30;56.80;;;;;;5054522;28;20090;-58
2022/03/25 12:03:49;;;;;;;45.28;24.10;;;18.30;56.60;;;;;;5054101;28;20017;-59
2022/03/25 12:06:47;;;;;;;53.65;23.77;;;18.10;56.30;;;;;;5054653;28;20033;-58
2022/03/25 12:09:18;;;;;;;54.30;24.55;;;18.10;56.10;;;;;;5055118;28;20025;-57
2022/03/25 12:11:49;;;;;;;50.03;23.50;;;18.00;56.60;;;;;;5053981;28;20031;-59
2022/03/25 12:14:15;;;;;;;46.33;21.95;;;18.00;56.40;;;;;;5055259;28;20025;-60
2022/03/25 12:17:08;;;;;;;45.00;22.50;;;18.40;57.10;;;;;;5054993;28;20055;-59
2022/03/25 12:19:41;;;;;;;44.80;24.13;;;18.50;56.00;;;;;;5054703;28;20039;-60
2022/03/25 12:22:18;;;;;;;45.60;24.83;;;18.50;54.20;;;;;;5055207;28;20471;-60
2022/03/25 12:24:55;;;;;;;53.40;25.52;;;18.30;54.30;;;;;;5053672;28;20033;-60
2022/03/25 12:27:21;;;;;;;51.38;24.20;;;18.10;53.70;;;;;;5054137;28;20049;-60
2022/03/25 12:29:51;;;;;;;53.88;24.67;;;18.10;54.30;;;;;;5054835;28;20028;-58
2022/03/25 12:32:19;;;;;;;50.77;22.60;;;18.00;53.90;;;;;;5055146;28;20021;-59
2022/03/25 12:35:05;;;;;;;48.90;24.55;;;18.00;53.50;;;;;;5053430;28;20343;-60
2022/03/25 12:37:35;;;;;;;52.50;24.52;;;18.00;52.50;;;;;;5054659;28;20054;-59
2022/03/25 12:40:16;;;;;;;48.30;23.35;;;18.00;53.80;;;;;;5054580;28;20024;-60
2022/03/25 12:42:43;;;;;;;46.92;23.58;;;18.10;55.30;;;;;;5054936;28;20028;-60
2022/03/25 12:45:09;;;;;;;39.58;20.92;;;18.20;54.90;;;;;;5053373;28;20074;-59
2022/03/25 12:47:37;;;;;;;45.65;22.13;;;18.40;55.80;;;;;;5054380;28;20017;-59